Time;durP1;ratioP1;P1;durP2;ratioP2;P2;SDS_P1;SDS_P2;PMS_P1;PMS_P2;Temp;Humidity;BMP_temperature;BMP_pressure;BME280_temperature;BME280_humidity;BME280_pressure;Samples;Min_cycle;Max_cycle;Signal;HPM_P1;HPM_P2
2022/04/24 00:02:24;;;;;;;31.17;18.20;;;;;;;8.17;61.54;99721.31;4718604;30;20065;-82
2022/04/24 00:04:50;;;;;;;37.08;19.10;;;;;;;8.17;60.68;99736.00;4718700;30;20048;-79
2022/04/24 00:07:19;;;;;;;34.28;19.05;;;;;;;8.01;62.08;99725.66;4718607;30;20041;-82
2022/04/24 00:09:46;;;;;;;33.97;19.05;;;;;;;8.12;61.88;99744.63;4719805;30;20535;-80
2022/04/24 00:12:15;;;;;;;31.17;19.27;;;;;;;7.94;62.07;99719.59;4713221;30;20045;-82
2022/04/24 00:14:50;;;;;;;34.35;18.70;;;;;;;7.91;61.98;99732.56;4733549;30;20083;-82
2022/04/24 00:17:16;;;;;;;33.85;19.77;;;;;;;7.83;62.23;99711.78;4731616;30;20147;-79
2022/04/24 00:19:43;;;;;;;32.55;19.48;;;;;;;7.92;62.72;99730.81;4737023;30;20021;-84
2022/04/24 00:22:11;;;;;;;29.13;19.02;;;;;;;8.06;62.77;99736.00;4734990;30;20645;-80
2022/04/24 00:24:44;;;;;;;32.33;19.40;;;;;;;7.89;62.38;99723.03;4725349;30;20152;-79
2022/04/24 00:27:10;;;;;;;38.35;20.67;;;;;;;7.84;62.58;99734.25;4707812;30;20181;-81
2022/04/24 00:29:36;;;;;;;36.00;20.55;;;;;;;7.97;62.83;99752.41;4728642;30;20049;-78
2022/04/24 00:32:05;;;;;;;36.53;19.77;;;;;;;7.86;63.54;99702.28;4736040;30;20044;-81
2022/04/24 00:34:35;;;;;;;38.63;20.02;;;;;;;8.14;63.53;99742.91;4723247;30;20079;-84
2022/04/24 00:37:01;;;;;;;31.58;19.13;;;;;;;8.11;62.85;99719.59;4734781;30;20079;-77
2022/04/24 00:39:30;;;;;;;39.20;19.17;;;;;;;8.25;63.02;99731.69;4725001;30;20143;-77
2022/04/24 00:41:58;;;;;;;33.92;17.23;;;;;;;7.62;63.18;99622.00;4734208;30;20497;-80
2022/04/24 00:44:28;;;;;;;29.17;17.93;;;;;;;8.32;63.51;99710.06;4704875;30;20492;-80
2022/04/24 00:47:27;;;;;;;41.95;18.90;;;;;;;7.80;62.92;99623.72;4671230;30;20334;-81
2022/04/24 00:49:59;;;;;;;39.83;17.83;;;;;;;8.27;62.77;99704.91;4732114;30;20525;-80
2022/04/24 00:52:25;;;;;;;28.83;16.90;;;;;;;8.39;63.21;99713.50;4717405;30;20075;-79
2022/04/24 00:54:51;;;;;;;35.63;18.58;;;;;;;8.43;63.41;99705.75;4733493;30;20048;-78
2022/04/24 00:57:20;;;;;;;30.02;18.02;;;;;;;8.23;62.48;99660.84;4703293;30;20053;-82
2022/04/24 00:59:49;;;;;;;27.42;17.33;;;;;;;8.26;62.78;99699.72;4704985;30;20045;-79
2022/04/24 01:02:17;;;;;;;27.65;17.40;;;;;;;7.34;63.49;99572.78;4706301;30;20082;-79
2022/04/24 01:04:43;;;;;;;30.75;19.17;;;;;;;8.15;63.24;99691.97;4736255;30;20082;-82
2022/04/24 01:07:12;;;;;;;33.13;18.42;;;;;;;8.25;63.06;99704.03;4706540;30;20088;-81
2022/04/24 01:09:39;;;;;;;32.05;18.13;;;;;;;7.98;62.41;99659.13;4719340;30;20049;-81
2022/04/24 01:12:06;;;;;;;33.40;18.48;;;;;;;8.04;63.66;99672.94;4702781;30;20060;-79
2022/04/24 01:14:34;;;;;;;34.38;18.70;;;;;;;8.20;63.58;99710.09;4702325;30;20049;-80
2022/04/24 01:17:04;;;;;;;30.77;18.60;;;;;;;7.84;63.10;99635.78;4717501;30;20059;-81
2022/04/24 01:19:31;;;;;;;33.47;18.73;;;;;;;8.18;63.12;99710.06;4717421;30;20060;-80
2022/04/24 01:21:58;;;;;;;33.30;18.42;;;;;;;8.23;63.75;99712.69;4716467;30;20084;-83
2022/04/24 01:24:26;;;;;;;30.98;19.15;;;;;;;7.90;63.04;99659.97;4702352;30;20546;-80
2022/04/24 01:27:02;;;;;;;26.15;17.73;;;;;;;8.11;63.60;99701.44;4718316;30;20056;-81
2022/04/24 01:29:29;;;;;;;34.60;18.67;;;;;;;7.96;63.04;99691.09;4687715;30;20063;-82
2022/04/24 01:31:56;;;;;;;32.40;17.83;;;;;;;7.89;64.17;99678.97;4716285;30;20603;-80
2022/04/24 01:34:25;;;;;;;27.23;17.30;;;;;;;8.02;64.30;99698.88;4716774;30;20136;-84
2022/04/24 01:36:56;;;;;;;33.35;18.17;;;;;;;8.11;63.84;99698.00;4731706;30;20131;-80
2022/04/24 01:39:22;;;;;;;31.13;17.70;;;;;;;8.10;63.98;99673.78;4702116;30;20045;-78
2022/04/24 01:41:48;;;;;;;29.88;17.15;;;;;;;8.01;63.59;99652.19;4716241;30;20398;-82
2022/04/24 01:44:15;;;;;;;28.73;16.40;;;;;;;7.90;64.02;99634.94;4701918;30;20596;-79
2022/04/24 01:46:41;;;;;;;32.97;17.15;;;;;;;8.12;64.17;99687.63;4716384;30;20557;-79
2022/04/24 01:49:10;;;;;;;31.17;16.23;;;;;;;8.08;64.00;99677.25;4716314;30;20056;-81
2022/04/24 01:51:37;;;;;;;30.05;16.17;;;;;;;8.09;64.01;99690.22;4701815;30;20053;-84
2022/04/24 01:54:03;;;;;;;28.15;16.55;;;;;;;7.75;64.18;99624.56;4717578;30;20048;-79
2022/04/24 01:56:29;;;;;;;31.23;17.27;;;;;;;8.03;64.16;99666.91;4716407;30;20544;-79
2022/04/24 01:58:55;;;;;;;28.02;16.15;;;;;;;8.11;64.19;99688.47;4734413;30;20060;-81
2022/04/24 02:01:21;;;;;;;31.88;15.90;;;;;;;7.93;63.95;99652.22;4733989;30;20127;-81
2022/04/24 02:03:49;;;;;;;27.80;16.52;;;;;;;8.09;64.80;99674.66;4732329;30;20445;-81
2022/04/24 02:06:15;;;;;;;30.30;15.77;;;;;;;8.17;64.86;99681.56;4734279;30;20048;-80
2022/04/24 02:08:41;;;;;;;28.95;15.75;;;;;;;8.16;64.56;99677.25;4722414;30;20071;-82
2022/04/24 02:11:08;;;;;;;27.13;16.63;;;;;;;8.25;64.53;99687.63;4741807;30;20044;-81
2022/04/24 02:13:37;;;;;;;33.15;17.95;;;;;;;8.16;64.61;99661.69;4756431;30;20091;-80
2022/04/24 02:16:04;;;;;;;32.63;20.25;;;;;;;8.27;64.91;99678.13;4709332;30;20071;-81
2022/04/24 02:18:39;;;;;;;36.28;21.67;;;;;;;8.11;64.41;99649.59;4735884;30;20061;-81
2022/04/24 02:21:05;;;;;;;32.35;20.45;;;;;;;8.48;64.70;99674.63;4706183;30;20553;-80
2022/04/24 02:23:32;;;;;;;30.67;16.67;;;;;;;8.38;64.67;99634.88;4720548;30;20126;-83
2022/04/24 02:26:01;;;;;;;31.80;16.73;;;;;;;8.51;63.71;99663.38;4691807;30;20083;-83
2022/04/24 02:28:27;;;;;;;26.65;15.70;;;;;;;8.37;63.76;99666.84;4736524;30;20106;-81
2022/04/24 02:31:02;;;;;;;31.10;16.85;;;;;;;8.55;64.61;99662.50;4705587;30;20048;-81
2022/04/24 02:33:37;;;;;;;25.42;15.43;;;;;;;8.85;64.22;99684.03;4723169;30;20052;-80
2022/04/24 02:36:06;;;;;;;29.50;16.17;;;;;;;8.82;63.42;99671.09;4723872;30;20052;-81
2022/04/24 02:38:32;;;;;;;24.10;14.80;;;;;;;8.82;63.81;99684.06;4737105;30;20144;-80
2022/04/24 02:40:59;;;;;;;28.45;15.80;;;;;;;8.59;63.08;99653.88;4707407;30;20131;-80
2022/04/24 02:43:31;;;;;;;27.52;14.75;;;;;;;8.64;63.61;99656.44;4737442;30;20098;-80
2022/04/24 02:46:00;;;;;;;30.67;16.15;;;;;;;8.61;63.92;99649.53;4706543;30;20079;-81
2022/04/24 02:48:27;;;;;;;27.10;13.90;;;;;;;8.64;63.25;99661.63;4720119;30;20488;-82
2022/04/24 02:50:54;;;;;;;28.08;15.35;;;;;;;8.69;63.91;99681.50;4692867;30;20078;-81
2022/04/24 02:53:20;;;;;;;24.67;14.13;;;;;;;8.48;63.41;99656.50;4722526;30;20041;-80
2022/04/24 02:55:46;;;;;;;26.13;14.70;;;;;;;8.48;64.24;99637.44;4721932;30;20085;-81
2022/04/24 02:58:14;;;;;;;27.88;14.57;;;;;;;8.75;63.22;99662.47;4721754;30;20078;-77
2022/04/24 03:00:43;;;;;;;23.42;14.50;;;;;;;8.61;63.69;99657.31;4719757;30;20517;-81
2022/04/24 03:03:12;;;;;;;21.73;13.93;;;;;;;8.42;63.62;99634.00;4719074;30;20106;-80
2022/04/24 03:05:45;;;;;;;28.05;14.10;;;;;;;8.68;63.64;99682.38;4704299;30;20055;-80
2022/04/24 03:08:12;;;;;;;27.67;15.27;;;;;;;8.21;63.79;99605.53;4734808;30;20656;-81
2022/04/24 03:10:38;;;;;;;23.35;14.77;;;;;;;8.59;64.78;99656.44;4704181;30;20397;-80
2022/04/24 03:13:04;;;;;;;22.83;14.40;;;;;;;8.92;64.00;99687.47;4735290;30;20056;-81
2022/04/24 03:15:30;;;;;;;25.10;15.38;;;;;;;8.67;63.24;99651.25;4736953;30;20040;-79
2022/04/24 03:17:56;;;;;;;25.88;14.80;;;;;;;8.68;63.48;99677.19;4739524;30;20061;-80
2022/04/24 03:20:28;;;;;;;21.67;13.77;;;;;;;8.76;63.90;99686.66;4725327;30;20060;-79
2022/04/24 03:22:54;;;;;;;;;;;;;;;8.76;63.75;99684.06;4706687;30;20136;-80
2022/04/24 03:25:20;;;;;;;20.20;13.20;;;;;;;8.50;63.69;99644.38;4704724;30;20073;-80
2022/04/24 03:27:46;;;;;;;23.45;12.63;;;;;;;8.85;63.89;99689.22;4705085;30;20053;-80
2022/04/24 03:30:12;;;;;;;22.85;13.82;;;;;;;8.80;63.96;99667.63;4704642;30;20044;-81
2022/04/24 03:32:39;;;;;;;22.42;13.38;;;;;;;8.70;63.81;99654.69;4704913;30;20052;-82
2022/04/24 03:35:08;;;;;;;25.02;12.68;;;;;;;8.80;63.57;99672.81;4691149;30;20197;-80
2022/04/24 03:37:36;;;;;;;20.15;13.00;;;;;;;8.85;63.82;99668.47;4719971;30;20532;-82
2022/04/24 03:40:03;;;;;;;25.80;12.50;;;;;;;9.16;63.82;99678.69;4720484;30;20139;-80
2022/04/24 03:42:29;;;;;;;20.58;12.73;;;;;;;9.26;63.82;99662.22;4722455;30;20150;-82
2022/04/24 03:44:56;;;;;;;22.08;13.05;;;;;;;9.46;63.17;99666.44;4705766;30;20056;-82
2022/04/24 03:47:26;;;;;;;21.55;13.15;;;;;;;9.40;62.13;99658.66;4731637;30;20034;-83
2022/04/24 03:49:54;;;;;;;22.60;12.45;;;;;;;9.56;63.16;99668.09;4749231;30;20177;-82
2022/04/24 03:52:20;;;;;;;26.08;13.18;;;;;;;9.76;62.69;99680.09;4745483;30;20080;-80
2022/04/24 03:54:46;;;;;;;22.00;12.40;;;;;;;9.54;62.68;99630.00;4719358;30;20080;-81
2022/04/24 03:57:12;;;;;;;20.58;12.50;;;;;;;9.79;62.11;99656.69;4733757;30;20080;-81
2022/04/24 03:59:39;;;;;;;19.70;12.45;;;;;;;9.86;61.31;99676.53;4734459;30;20045;-82
2022/04/24 04:02:06;;;;;;;19.52;12.35;;;;;;;9.63;61.37;99659.38;4718015;30;20581;-82
2022/04/24 04:04:33;;;;;;;22.73;12.13;;;;;;;9.55;61.62;99671.56;4704374;30;20055;-81
2022/04/24 04:06:59;;;;;;;21.08;13.38;;;;;;;9.62;61.89;99677.59;4718326;30;20052;-80
2022/04/24 04:09:30;;;;;;;21.45;12.27;;;;;;;9.57;61.47;99675.03;4734018;30;20048;-77
2022/04/24 04:11:57;;;;;;;26.38;12.43;;;;;;;9.54;62.31;99675.03;4689226;30;20059;-83
2022/04/24 04:14:23;;;;;;;18.70;11.77;;;;;;;9.57;61.68;99671.56;4717538;30;20044;-80
2022/04/24 04:16:50;;;;;;;23.42;12.75;;;;;;;9.50;62.15;99670.75;4730486;30;20125;-79
2022/04/24 04:19:17;;;;;;;20.25;12.43;;;;;;;9.32;62.16;99628.44;4746647;30;20061;-79
2022/04/24 04:21:45;;;;;;;21.63;12.52;;;;;;;9.60;62.55;99674.97;4707112;30;20049;-79
2022/04/24 04:24:12;;;;;;;23.17;12.75;;;;;;;9.61;62.12;99674.09;4717525;30;20060;-81
2022/04/24 04:26:38;;;;;;;20.88;11.95;;;;;;;9.71;62.45;99640.28;4717258;30;20075;-80
2022/04/24 04:29:04;;;;;;;17.70;11.65;;;;;;;9.88;61.09;99656.59;4718098;30;20159;-81
2022/04/24 04:31:32;;;;;;;21.15;11.82;;;;;;;9.82;61.68;99656.63;4734509;30;20065;-77
2022/04/24 04:34:00;;;;;;;18.25;10.65;;;;;;;9.65;61.67;99643.78;4704528;30;20064;-79
2022/04/24 04:36:28;;;;;;;20.40;10.82;;;;;;;9.72;62.28;99637.66;4708898;30;20069;-78
2022/04/24 04:38:57;;;;;;;18.67;10.98;;;;;;;9.99;61.19;99656.50;4740129;30;20048;-81
2022/04/24 04:41:24;;;;;;;17.83;10.63;;;;;;;9.94;61.84;99658.25;4733668;30;20040;-79
2022/04/24 04:44:00;;;;;;;19.15;10.25;;;;;;;9.50;61.45;99582.41;4717138;30;20052;-80
2022/04/24 04:46:27;;;;;;;16.77;9.65;;;;;;;10.05;62.06;99672.06;4703079;30;20061;-79
2022/04/24 04:48:53;;;;;;;15.68;10.68;;;;;;;9.89;61.14;99628.88;4733139;30;20048;-82
2022/04/24 04:51:22;;;;;;;18.38;10.18;;;;;;;9.92;61.77;99611.50;4732940;30;20047;-84
2022/04/24 04:53:56;;;;;;;16.55;10.15;;;;;;;10.18;61.68;99619.91;4718467;30;20053;-82
2022/04/24 04:56:25;;;;;;;21.52;10.70;;;;;;;9.75;61.19;99572.66;4717159;30;20131;-78
2022/04/24 04:58:51;;;;;;;17.65;10.30;;;;;;;10.09;61.20;99616.56;4702861;30;20143;-80
2022/04/24 05:01:30;;;;;;;13.15;9.05;;;;;;;9.90;61.05;99544.84;4716734;30;20127;-78
2022/04/24 05:04:02;;;;;;;15.75;9.13;;;;;;;9.96;60.14;99539.56;4732461;30;20118;-81
2022/04/24 05:06:28;;;;;;;18.48;10.18;;;;;;;9.92;60.55;99543.94;4719291;30;20056;-80
2022/04/24 05:08:57;;;;;;;15.30;9.70;;;;;;;9.50;60.36;99471.59;4736779;30;20106;-83
2022/04/24 05:11:27;;;;;;;15.43;9.57;;;;;;;9.99;60.09;99552.53;4690196;30;20086;-83
2022/04/24 05:14:14;;;;;;;18.02;9.30;;;;;;;10.01;59.30;99607.13;4719092;30;20079;-81
2022/04/24 05:16:40;;;;;;;13.98;9.20;;;;;;;9.67;60.17;99558.03;4735630;30;20059;-80
2022/04/24 05:19:07;;;;;;;12.82;8.77;;;;;;;10.10;60.43;99643.41;4720495;30;20084;-83
2022/04/24 05:21:34;;;;;;;17.38;10.07;;;;;;;10.08;60.45;99621.75;4707207;30;20045;-83
2022/04/24 05:24:00;;;;;;;16.10;10.48;;;;;;;9.41;60.33;99502.84;4727723;30;20094;-81
2022/04/24 05:26:27;;;;;;;17.63;9.43;;;;;;;9.57;60.19;99560.72;4721581;30;20057;-82
2022/04/24 05:28:58;;;;;;;17.15;10.48;;;;;;;9.91;60.79;99582.94;4718424;30;20044;-85
2022/04/24 05:31:24;;;;;;;16.00;9.82;;;;;;;10.29;60.08;99646.69;4720436;30;20052;-81
2022/04/24 05:33:56;;;;;;;20.05;10.07;;;;;;;9.84;60.27;99569.13;4719287;30;20471;-82
2022/04/24 05:36:22;;;;;;;17.63;10.73;;;;;;;10.30;60.51;99644.94;4720823;30;20071;-82
2022/04/24 05:38:51;;;;;;;16.58;10.02;;;;;;;9.86;59.82;99582.13;4704703;30;20552;-82
2022/04/24 05:41:20;;;;;;;22.08;11.48;;;;;;;9.70;60.44;99545.03;4704297;30;20044;-81
2022/04/24 05:43:49;;;;;;;19.08;11.40;;;;;;;10.20;60.26;99634.66;4721709;30;20048;-82
2022/04/24 05:46:15;;;;;;;25.95;12.82;;;;;;;10.16;60.32;99617.34;4737948;30;20055;-82
2022/04/24 05:49:17;;;;;;;28.73;15.35;;;;;;;10.30;60.25;99637.13;4707996;30;20078;-84
2022/04/24 05:51:43;;;;;;;21.35;12.90;;;;;;;9.77;60.37;99546.69;4721154;30;20143;-83
2022/04/24 05:54:16;;;;;;;20.63;11.75;;;;;;;9.51;60.40;99537.41;4721490;30;20044;-82
2022/04/24 05:57:23;;;;;;;17.67;10.55;;;;;;;10.38;60.38;99640.53;4724042;30;20435;-83
2022/04/24 05:59:49;;;;;;;15.90;10.32;;;;;;;9.50;60.24;99481.97;4723329;30;20056;-79
2022/04/24 06:02:21;;;;;;;22.02;10.45;;;;;;;10.61;59.91;99640.28;4719815;30;20075;-81
2022/04/24 06:04:47;;;;;;;18.50;10.48;;;;;;;10.18;59.45;99579.19;4721598;30;20140;-80
2022/04/24 06:07:13;;;;;;;18.15;10.32;;;;;;;10.37;60.13;99599.78;4746082;30;20064;-81
2022/04/24 06:09:40;;;;;;;16.80;10.13;;;;;;;10.15;60.27;99545.41;4706158;30;20048;-83
2022/04/24 06:12:15;;;;;;;17.80;10.48;;;;;;;10.29;60.22;99531.38;4720525;30;20048;-81
2022/04/24 06:15:04;;;;;;;20.58;10.27;;;;;;;10.93;59.49;99626.03;4736515;30;20044;-83
2022/04/24 06:17:32;;;;;;;19.08;9.38;;;;;;;9.88;59.90;99440.88;4719893;30;20411;-81
2022/04/24 06:20:02;;;;;;;19.20;10.23;;;;;;;10.50;59.23;99544.16;4691450;30;20627;-81
2022/04/24 06:25:43;;;;;;;19.95;10.57;;;;;;;10.63;59.20;99499.78;4715392;30;20591;-81
2022/04/24 06:28:13;;;;;;;21.25;10.00;;;;;;;11.47;59.23;99607.91;4723286;30;20044;-80
2022/04/24 06:30:42;;;;;;;16.25;10.25;;;;;;;10.66;58.46;99455.50;4705462;30;20513;-84
2022/04/24 06:34:40;;;;;;;;;;;;;;;;;;;;;
2022/04/24 06:37:34;;;;;;;16.13;10.63;;;;;;;12.09;57.95;99619.94;4682138;30;20566;-81
2022/04/24 06:40:42;;;;;;;18.05;10.88;;;;;;;11.92;58.07;99560.25;4681816;30;20141;-83
2022/04/24 06:43:15;;;;;;;16.75;9.88;;;;;;;11.24;57.70;99445.03;4717962;30;20072;-82
2022/04/24 06:48:41;;;;;;;15.65;9.77;;;;;;;12.40;56.88;99619.38;4717255;30;20056;-82
2022/04/24 06:51:20;;;;;;;17.48;10.48;;;;;;;12.37;56.62;99616.84;4723506;30;20471;-84
2022/04/24 06:54:12;;;;;;;16.48;10.70;;;;;;;11.95;56.71;99539.31;4723083;30;20483;-81
2022/04/24 06:56:38;;;;;;;18.88;11.60;;;;;;;12.10;56.91;99551.25;4722292;30;20067;-81
2022/04/24 06:59:06;;;;;;;18.58;10.73;;;;;;;11.82;55.77;99495.25;4738586;30;20040;-78
2022/04/24 07:01:41;;;;;;;15.45;9.85;;;;;;;12.26;55.88;99575.31;4745153;30;20139;-83
2022/04/24 07:04:17;;;;;;;17.30;10.77;;;;;;;12.24;56.20;99604.03;4741377;30;20049;-80
2022/04/24 07:07:02;;;;;;;19.95;12.30;;;;;;;12.05;56.30;99603.50;4746622;30;20056;-83
2022/04/24 07:09:29;;;;;;;22.20;14.05;;;;;;;11.96;56.97;99583.63;4720874;30;20049;-81
2022/04/24 07:12:00;;;;;;;20.52;13.25;;;;;;;12.18;56.81;99601.53;4706265;30;20554;-80
2022/04/24 07:14:26;;;;;;;20.10;12.70;;;;;;;12.07;56.60;99548.69;4711167;30;20106;-82
2022/04/24 07:16:53;;;;;;;23.20;12.18;;;;;;;12.43;56.62;99561.94;4722131;30;20048;-82
2022/04/24 07:19:20;;;;;;;22.55;12.23;;;;;;;12.34;56.44;99505.56;4726252;30;20131;-80
2022/04/24 07:21:58;;;;;;;21.85;13.70;;;;;;;12.99;55.75;99558.13;4728269;30;20048;-81
2022/04/24 07:24:28;;;;;;;20.45;12.05;;;;;;;12.75;54.80;99500.34;4743584;30;20048;-83
2022/04/24 07:27:57;;;;;;;20.42;13.18;;;;;;;12.07;54.66;99408.75;4728228;30;20106;-81
2022/04/24 07:31:11;;;;;;;;;;;;;;;;;;;;;
2022/04/24 07:34:05;;;;;;;;;;;;;;;;;;;;;
2022/04/24 07:36:45;;;;;;;28.52;18.42;;;;;;;13.10;53.16;99443.81;4723933;30;20052;-83
2022/04/24 07:39:20;;;;;;;28.75;22.75;;;;;;;14.02;52.98;99586.13;4736202;30;20062;-82
2022/04/24 07:42:24;;;;;;;28.63;19.05;;;;;;;13.72;52.60;99512.81;4733599;30;20068;-82
2022/04/24 07:44:55;;;;;;;29.40;17.02;;;;;;;14.07;52.46;99584.25;4736323;30;20052;-84
2022/04/24 07:47:21;;;;;;;21.83;13.30;;;;;;;13.39;52.32;99450.91;4706461;30;20055;-81
2022/04/24 07:49:53;;;;;;;25.27;13.38;;;;;;;14.07;51.85;99565.09;4736580;30;20048;-83
2022/04/24 07:52:31;;;;;;;22.52;12.35;;;;;;;13.48;51.92;99449.84;4750767;30;20068;-81
2022/04/24 07:55:06;;;;;;;24.85;13.13;;;;;;;14.09;51.55;99509.19;4736025;30;20143;-81
2022/04/24 07:57:32;;;;;;;18.55;12.52;;;;;;;14.22;51.60;99491.41;4735010;30;20027;-84
2022/04/24 07:59:58;;;;;;;29.20;14.43;;;;;;;14.55;51.39;99543.69;4721283;30;20053;-83
2022/04/24 08:02:24;;;;;;;20.80;11.75;;;;;;;14.46;51.20;99476.72;4736921;30;20056;-83
2022/04/24 08:04:53;;;;;;;24.55;12.85;;;;;;;14.75;50.51;99445.34;4737445;30;20210;-79
2022/04/24 08:07:26;;;;;;;25.23;15.60;;;;;;;15.99;49.78;99547.91;4749962;30;20094;-82
2022/04/24 08:10:06;;;;;;;32.67;16.13;;;;;;;16.65;47.81;99532.34;4748308;30;20048;-82
2022/04/24 08:12:39;;;;;;;19.90;11.05;;;;;;;17.21;47.12;99532.84;4737881;30;20033;-83
2022/04/24 08:15:09;;;;;;;27.38;12.27;;;;;;;16.41;45.81;99368.72;4732568;30;20133;-80
2022/04/24 08:17:38;;;;;;;21.75;12.60;;;;;;;17.27;45.54;99476.50;4733669;30;20068;-81
2022/04/24 08:20:07;;;;;;;20.15;12.73;;;;;;;17.57;44.78;99534.84;4710100;30;20058;-83
2022/04/24 08:22:57;;;;;;;22.38;9.65;;;;;;;16.38;44.14;99379.34;4739113;30;20048;-81
2022/04/24 08:25:29;;;;;;;19.92;7.72;;;;;;;17.30;44.46;99539.50;4724572;30;20052;-81
2022/04/24 08:30:58;;;;;;;17.63;6.97;;;;;;;16.49;43.73;99452.44;4757701;30;20072;-81
2022/04/24 08:33:29;;;;;;;16.23;8.98;;;;;;;16.61;43.60;99465.06;4773033;30;20028;-79
2022/04/24 08:36:02;;;;;;;13.15;5.97;;;;;;;16.59;43.27;99429.28;4774515;29;20056;-81
2022/04/24 08:38:33;;;;;;;15.18;7.97;;;;;;;17.39;42.54;99531.22;4776552;30;20100;-80
2022/04/24 08:41:11;;;;;;;12.05;5.28;;;;;;;17.02;42.37;99448.59;4763805;29;20032;-79
2022/04/24 08:43:38;;;;;;;12.95;5.75;;;;;;;17.00;41.63;99439.94;4771883;29;20070;-80
2022/04/24 08:46:08;;;;;;;9.45;5.53;;;;;;;17.63;41.41;99507.41;4768323;30;20195;-79
2022/04/24 08:48:35;;;;;;;9.50;4.80;;;;;;;17.46;41.16;99474.81;4751140;30;20452;-82
2022/04/24 08:51:11;;;;;;;8.93;5.10;;;;;;;17.67;40.79;99477.44;4775842;30;20055;-80
2022/04/24 08:53:42;;;;;;;10.77;5.63;;;;;;;17.03;39.75;99358.34;4754571;30;20515;-80
2022/04/24 08:56:11;;;;;;;11.70;5.55;;;;;;;17.90;39.74;99517.69;4769196;30;20039;-79
2022/04/24 08:59:18;;;;;;;9.25;5.45;;;;;;;17.98;39.97;99518.25;4769424;30;20052;-81
2022/04/24 09:01:31;;;;;;;11.48;5.72;;;;;;;17.58;38.86;99423.44;4781661;29;20075;-83
2022/04/24 09:04:00;;;;;;;11.07;5.15;;;;;;;17.98;38.74;99355.06;4789427;30;20071;-82
2022/04/24 09:06:31;;;;;;;8.90;4.82;;;;;;;19.18;37.42;99452.97;4784487;30;20744;-80
2022/04/24 09:12:30;;;;;;;6.93;4.25;;;;;;;19.51;35.75;99375.66;4765498;30;20837;-82
2022/04/24 09:15:06;;;;;;;9.45;4.40;;;;;;;18.85;35.80;99332.44;4775268;30;20537;-81
2022/04/24 09:17:36;;;;;;;7.57;4.20;;;;;;;20.25;35.36;99507.34;4748406;30;20131;-81
2022/04/24 09:20:28;;;;;;;7.05;3.65;;;;;;;18.93;34.18;99353.13;4764146;30;20501;-82
2022/04/24 09:23:20;;;;;;;9.68;3.67;;;;;;;19.74;34.74;99494.13;4759737;30;20546;-82
2022/04/24 09:26:14;;;;;;;4.65;4.00;;;;;;;19.36;35.22;99434.47;4743922;30;20047;-80
2022/04/24 09:29:02;;;;;;;5.10;3.55;;;;;;;19.70;34.98;99489.00;4767264;30;20058;-81
2022/04/24 09:31:38;;;;;;;8.65;4.50;;;;;;;18.82;34.45;99367.69;4730073;30;20067;-81
2022/04/24 09:35:13;;;;;;;8.63;4.40;;;;;;;19.15;34.61;99484.75;4721386;30;20052;-81
2022/04/24 09:37:48;;;;;;;11.27;4.18;;;;;;;18.36;34.73;99376.06;4732199;30;20063;-80
2022/04/24 09:40:40;;;;;;;7.45;3.90;;;;;;;18.70;35.09;99431.56;4731208;30;20045;-81
2022/04/24 09:43:19;;;;;;;6.88;4.57;;;;;;;18.56;34.91;99463.81;4733951;30;20051;-81
2022/04/24 09:46:51;;;;;;;;;;;;;;;;;;;;;
2022/04/24 09:49:38;;;;;;;6.10;4.00;;;;;;;17.02;35.23;99339.06;4715718;30;20057;-82
2022/04/24 09:52:38;;;;;;;6.13;4.03;;;;;;;17.82;35.75;99475.91;4737893;30;20029;-82
2022/04/24 09:55:20;;;;;;;9.70;4.60;;;;;;;17.56;35.70;99463.88;4728230;30;20041;-80
2022/04/24 09:57:48;;;;;;;6.18;4.25;;;;;;;17.65;36.13;99476.66;4719614;30;20076;-82
2022/04/24 10:00:15;;;;;;;6.13;4.40;;;;;;;17.49;35.91;99454.56;4726397;30;20140;-82
2022/04/24 10:02:43;;;;;;;8.95;3.92;;;;;;;17.67;35.76;99492.34;4720679;30;20106;-82
2022/04/24 10:05:09;;;;;;;5.15;3.92;;;;;;;17.28;36.12;99444.03;4715966;30;20037;-83
2022/04/24 10:07:36;;;;;;;6.50;4.03;;;;;;;17.16;36.10;99417.34;4729575;30;20048;-80
2022/04/24 10:10:07;;;;;;;5.22;3.63;;;;;;;17.38;36.06;99455.88;4733125;30;20052;-81
2022/04/24 10:12:53;;;;;;;6.50;4.22;;;;;;;17.61;35.92;99480.31;4721643;30;20083;-80
2022/04/24 10:15:24;;;;;;;6.78;4.25;;;;;;;16.71;35.88;99315.84;4723299;30;20037;-82
2022/04/24 10:17:57;;;;;;;6.55;4.32;;;;;;;17.67;35.90;99452.88;4743841;30;20092;-81
2022/04/24 10:21:03;;;;;;;7.93;4.93;;;;;;;17.62;35.62;99445.22;4727425;30;20121;-80
2022/04/24 10:23:34;;;;;;;6.75;4.90;;;;;;;17.40;35.74;99427.72;4721543;30;20052;-82
2022/04/24 10:26:03;;;;;;;9.65;5.00;;;;;;;17.31;35.77;99444.75;4718322;30;20052;-83
2022/04/24 10:28:39;;;;;;;4.82;4.07;;;;;;;17.39;36.07;99478.63;4717874;30;20152;-82
2022/04/24 10:31:06;;;;;;;6.32;4.50;;;;;;;17.34;35.65;99493.72;4739839;30;20064;-81
2022/04/24 10:33:34;;;;;;;7.35;4.13;;;;;;;16.98;36.02;99473.31;4744210;30;20139;-80
2022/04/24 10:36:14;;;;;;;7.60;4.18;;;;;;;16.63;36.46;99458.00;4753220;30;20063;-83
2022/04/24 10:39:16;;;;;;;6.07;4.22;;;;;;;16.67;36.89;99535.78;4734779;30;20063;-83
2022/04/24 10:41:54;;;;;;;6.55;4.22;;;;;;;15.98;37.88;99430.75;4749431;30;20173;-83
2022/04/24 10:44:20;;;;;;;14.35;9.38;;;;;;;15.98;38.94;99456.97;4739450;30;20056;-83
2022/04/24 10:46:48;;;;;;;9.15;5.80;;;;;;;15.88;38.95;99428.44;4737492;30;20043;-82
2022/04/24 10:49:16;;;;;;;7.53;4.50;;;;;;;16.27;39.50;99492.63;4756216;30;20051;-80
2022/04/24 10:51:46;;;;;;;7.25;4.45;;;;;;;16.27;39.94;99490.84;4749808;30;20055;-83
2022/04/24 10:54:19;;;;;;;7.70;5.15;;;;;;;16.42;40.37;99497.31;4747901;30;20465;-80
2022/04/24 10:56:51;;;;;;;9.77;4.30;;;;;;;16.26;40.24;99413.00;4753230;30;20055;-84
2022/04/24 10:59:22;;;;;;;7.93;4.72;;;;;;;15.80;39.65;99344.75;4758410;30;20047;-81
2022/04/24 11:01:51;;;;;;;8.05;5.10;;;;;;;16.59;40.22;99459.03;4751731;30;20071;-81
2022/04/24 11:04:19;;;;;;;6.85;4.45;;;;;;;16.79;40.02;99481.91;4737773;30;20058;-81
2022/04/24 11:06:59;;;;;;;9.18;4.85;;;;;;;16.22;40.25;99389.56;4753243;30;20052;-80
2022/04/24 11:09:31;;;;;;;6.82;4.80;;;;;;;16.67;39.99;99474.47;4743098;30;20052;-82
2022/04/24 11:12:18;;;;;;;7.45;4.43;;;;;;;16.28;40.24;99433.97;4747336;30;20040;-80
2022/04/24 11:14:44;;;;;;;5.75;4.65;;;;;;;15.81;40.30;99383.19;4753129;30;20048;-81
2022/04/24 11:17:11;;;;;;;7.05;4.75;;;;;;;16.32;41.14;99484.59;4755212;30;20093;-79
2022/04/24 11:19:39;;;;;;;7.65;4.05;;;;;;;16.20;41.29;99488.53;4767759;30;20055;-78
2022/04/24 11:22:14;;;;;;;10.40;5.13;;;;;;;15.68;41.33;99417.78;4755868;30;20039;-80
2022/04/24 11:24:42;;;;;;;6.25;4.68;;;;;;;16.11;41.29;99529.94;4744956;30;20047;-81
2022/04/24 11:27:11;;;;;;;11.10;5.68;;;;;;;15.58;42.14;99504.63;4759284;30;20139;-79
2022/04/24 11:29:39;;;;;;;10.48;6.03;;;;;;;15.14;43.54;99527.94;4751864;30;20113;-81
2022/04/24 11:32:18;;;;;;;13.63;7.50;;;;;;;14.42;46.12;99492.56;4738611;30;20044;-77
2022/04/24 11:34:53;;;;;;;11.30;8.15;;;;;;;13.74;49.03;99477.03;4742601;30;20044;-80
2022/04/24 11:37:24;;;;;;;13.32;7.90;;;;;;;13.67;51.16;99527.78;4742078;30;20107;-83
2022/04/24 11:40:00;;;;;;;9.90;8.52;;;;;;;13.24;52.88;99485.28;4729890;30;20593;-80
2022/04/24 11:42:28;;;;;;;10.73;8.15;;;;;;;12.93;53.99;99481.63;4754560;30;20083;-79
2022/04/24 11:50:52;;;;;;;10.40;9.30;;;;;;;13.44;56.69;99563.19;4753633;30;20055;-77
2022/04/24 11:53:25;;;;;;;13.00;9.02;;;;;;;13.31;57.06;99548.69;4770462;29;20036;-78
2022/04/24 11:56:04;;;;;;;10.18;8.40;;;;;;;12.84;57.12;99458.34;4973011;24;20080;-79
2022/04/24 11:59:16;;;;;;;11.23;8.40;;;;;;;13.58;57.16;99575.03;4778974;29;20108;-78
2022/04/24 12:01:45;;;;;;;11.88;8.40;;;;;;;13.61;57.26;99578.47;4768178;30;20036;-78
2022/04/24 12:04:19;;;;;;;10.70;8.43;;;;;;;13.23;57.76;99502.69;4765983;29;20051;-79
2022/04/24 12:06:51;;;;;;;11.30;7.85;;;;;;;12.57;57.74;99400.69;4754436;30;20077;-79
2022/04/24 12:09:23;;;;;;;10.98;7.63;;;;;;;13.58;58.07;99580.28;4778290;30;20188;-81
2022/04/24 12:11:52;;;;;;;12.02;8.57;;;;;;;13.23;58.19;99539.25;4754383;30;20107;-79
2022/04/24 12:14:26;;;;;;;9.80;7.53;;;;;;;13.35;58.46;99563.41;4776495;30;20484;-78
2022/04/24 12:17:11;;;;;;;9.50;7.63;;;;;;;13.40;58.67;99574.56;4774815;29;20077;-77